Time;durP1;ratioP1;P1;durP2;ratioP2;P2;SDS_P1;SDS_P2;PMS_P1;PMS_P2;Temp;Humidity;BMP_temperature;BMP_pressure;BME280_temperature;BME280_humidity;BME280_pressure;Samples;Min_cycle;Max_cycle;Signal;HPM_P1;HPM_P2
2023/07/16 00:01:00;;;;;;;0.00;0.00;;;;;;;;;;5081465;28;20313;-75
2023/07/16 00:03:26;;;;;;;0.32;0.20;;;;;;;;;;5096031;28;20393;-76
2023/07/16 00:05:54;;;;;;;0.10;0.10;;;;;;;;;;5081788;28;20243;-75
2023/07/16 00:08:20;;;;;;;0.65;0.47;;;;;;;;;;5095887;28;20210;-75
2023/07/16 00:10:47;;;;;;;0.10;0.10;;;;;;;;;;5080806;28;20252;-75
2023/07/16 00:13:13;;;;;;;0.38;0.20;;;;;;;;;;5096324;28;20203;-75
2023/07/16 00:15:41;;;;;;;0.00;0.00;;;;;;;;;;5078982;28;20240;-74
2023/07/16 00:18:08;;;;;;;0.00;0.00;;;;;;;;;;5097858;28;20225;-76
2023/07/16 00:20:35;;;;;;;0.10;0.10;;;;;;;;;;5078913;28;20243;-75
2023/07/16 00:23:03;;;;;;;0.10;0.10;;;;;;;;;;5097891;28;20206;-74
2023/07/16 00:25:29;;;;;;;0.00;0.00;;;;;;;;;;5078296;28;20254;-75
2023/07/16 00:27:56;;;;;;;0.08;0.08;;;;;;;;;;5098302;28;20273;-76
2023/07/16 00:30:22;;;;;;;0.00;0.00;;;;;;;;;;5077123;28;20268;-76
2023/07/16 00:32:49;;;;;;;0.08;0.08;;;;;;;;;;5099548;28;20201;-76
2023/07/16 00:35:15;;;;;;;0.00;0.00;;;;;;;;;;5076464;28;20207;-77
2023/07/16 00:37:42;;;;;;;0.00;0.00;;;;;;;;;;5099965;28;20202;-77
2023/07/16 00:40:11;;;;;;;0.00;0.00;;;;;;;;;;5074255;28;20210;-77
2023/07/16 00:42:45;;;;;;;0.10;0.10;;;;;;;;;;5100580;28;20268;-77
2023/07/16 00:45:13;;;;;;;0.00;0.00;;;;;;;;;;5075430;28;20219;-77
2023/07/16 00:47:40;;;;;;;0.10;0.10;;;;;;;;;;5100483;28;20192;-77
2023/07/16 00:50:08;;;;;;;0.10;0.10;;;;;;;;;;5085056;28;20240;-77
2023/07/16 00:52:34;;;;;;;0.00;0.00;;;;;;;;;;5073865;28;20214;-77
2023/07/16 00:55:01;;;;;;;0.10;0.10;;;;;;;;;;5085375;28;20440;-77
2023/07/16 00:57:35;;;;;;;0.10;0.10;;;;;;;;;;5090631;28;20433;-77
2023/07/16 01:00:01;;;;;;;0.00;0.00;;;;;;;;;;5085097;28;20233;-77
2023/07/16 01:02:28;;;;;;;0.00;0.00;;;;;;;;;;5074066;28;20471;-78
2023/07/16 01:04:54;;;;;;;0.10;0.10;;;;;;;;;;5085013;28;20200;-77
2023/07/16 01:07:22;;;;;;;0.00;0.00;;;;;;;;;;5090510;28;20291;-77
2023/07/16 01:09:48;;;;;;;0.10;0.10;;;;;;;;;;5084713;28;20262;-77
2023/07/16 01:12:14;;;;;;;0.00;0.00;;;;;;;;;;5090422;28;20262;-77
2023/07/16 01:14:43;;;;;;;0.00;0.00;;;;;;;;;;5085104;28;20244;-77
2023/07/16 01:17:10;;;;;;;0.10;0.10;;;;;;;;;;5090150;28;20312;-76
2023/07/16 01:19:37;;;;;;;0.00;0.00;;;;;;;;;;5084909;28;20272;-76
2023/07/16 01:22:10;;;;;;;0.05;0.05;;;;;;;;;;5089350;28;20250;-77
2023/07/16 01:24:51;;;;;;;0.03;0.03;;;;;;;;;;5084591;28;20186;-77
2023/07/16 01:27:30;;;;;;;0.00;0.00;;;;;;;;;;5090214;28;20252;-75
2023/07/16 01:30:02;;;;;;;0.08;0.08;;;;;;;;;;5084763;28;20379;-76
2023/07/16 01:32:34;;;;;;;0.05;0.05;;;;;;;;;;5090236;28;20246;-76
2023/07/16 01:35:01;;;;;;;0.10;0.10;;;;;;;;;;5084635;28;20230;-75
2023/07/16 01:37:27;;;;;;;0.05;0.05;;;;;;;;;;5089966;28;20249;-77
2023/07/16 01:39:54;;;;;;;0.00;0.00;;;;;;;;;;5084162;28;20511;-76
2023/07/16 01:42:20;;;;;;;0.00;0.00;;;;;;;;;;5089685;28;20357;-76
2023/07/16 01:44:47;;;;;;;0.10;0.10;;;;;;;;;;5084407;28;20253;-76
2023/07/16 01:47:16;;;;;;;0.00;0.00;;;;;;;;;;5089709;28;20243;-77
2023/07/16 01:49:42;;;;;;;0.00;0.00;;;;;;;;;;5083882;28;20205;-75
2023/07/16 01:52:10;;;;;;;0.00;0.00;;;;;;;;;;5089162;28;20245;-77
2023/07/16 01:54:36;;;;;;;0.00;0.00;;;;;;;;;;5084302;28;20273;-76
2023/07/16 01:57:03;;;;;;;0.00;0.00;;;;;;;;;;5088735;28;20267;-77
2023/07/16 01:59:29;;;;;;;0.00;0.00;;;;;;;;;;5084745;28;20207;-75
2023/07/16 02:01:58;;;;;;;0.10;0.10;;;;;;;;;;5087554;28;20297;-76
2023/07/16 02:04:26;;;;;;;0.10;0.10;;;;;;;;;;5085326;28;20205;-76
2023/07/16 02:06:53;;;;;;;0.00;0.00;;;;;;;;;;5083725;28;20250;-74
2023/07/16 02:09:19;;;;;;;0.00;0.00;;;;;;;;;;5086353;28;20430;-77
2023/07/16 02:11:46;;;;;;;0.00;0.00;;;;;;;;;;5086200;28;20235;-76
2023/07/16 02:14:13;;;;;;;0.10;0.10;;;;;;;;;;5086821;28;20239;-77
2023/07/16 02:16:40;;;;;;;0.00;0.00;;;;;;;;;;5085460;28;20329;-77
2023/07/16 02:19:06;;;;;;;0.10;0.10;;;;;;;;;;5087600;28;20219;-74
2023/07/16 02:21:36;;;;;;;0.10;0.10;;;;;;;;;;5084406;28;20253;-77
2023/07/16 02:24:02;;;;;;;0.10;0.10;;;;;;;;;;5088146;28;20209;-77
2023/07/16 02:26:28;;;;;;;0.00;0.00;;;;;;;;;;5083841;28;20239;-76
2023/07/16 02:28:55;;;;;;;0.00;0.00;;;;;;;;;;5088982;28;20196;-75
2023/07/16 02:31:22;;;;;;;0.00;0.00;;;;;;;;;;5082457;28;20514;-76
2023/07/16 02:33:49;;;;;;;0.00;0.00;;;;;;;;;;5089765;28;20203;-77
2023/07/16 02:36:17;;;;;;;0.00;0.00;;;;;;;;;;5082153;28;20256;-77
2023/07/16 02:38:45;;;;;;;0.10;0.10;;;;;;;;;;5090053;28;20227;-76
2023/07/16 02:41:12;;;;;;;0.00;0.00;;;;;;;;;;5081360;28;20491;-77
2023/07/16 02:43:38;;;;;;;0.10;0.10;;;;;;;;;;5090467;28;20267;-76
2023/07/16 02:46:05;;;;;;;0.00;0.00;;;;;;;;;;5080451;28;20239;-76
2023/07/16 02:48:31;;;;;;;0.22;0.22;;;;;;;;;;5091831;28;20439;-76
2023/07/16 02:50:57;;;;;;;0.10;0.10;;;;;;;;;;5079464;28;20270;-76
2023/07/16 02:53:24;;;;;;;0.10;0.10;;;;;;;;;;5092715;28;20206;-76
2023/07/16 02:55:52;;;;;;;0.10;0.10;;;;;;;;;;5078480;28;20274;-77
2023/07/16 02:58:20;;;;;;;0.03;0.03;;;;;;;;;;5093264;28;20216;-76
2023/07/16 03:00:46;;;;;;;0.03;0.03;;;;;;;;;;5079179;28;20244;-75
2023/07/16 03:03:14;;;;;;;0.20;0.20;;;;;;;;;;5098053;28;20211;-75
2023/07/16 03:05:40;;;;;;;0.00;0.00;;;;;;;;;;5081136;28;20439;-75
2023/07/16 03:08:07;;;;;;;0.00;0.00;;;;;;;;;;5098527;28;20219;-75
2023/07/16 03:10:33;;;;;;;0.00;0.00;;;;;;;;;;5079836;28;20561;-77
2023/07/16 03:13:01;;;;;;;0.00;0.00;;;;;;;;;;5099507;28;20240;-76
2023/07/16 03:15:27;;;;;;;0.00;0.00;;;;;;;;;;5076995;28;20284;-77
2023/07/16 03:17:54;;;;;;;0.08;0.08;;;;;;;;;;5100398;28;20186;-75
2023/07/16 03:20:20;;;;;;;0.10;0.10;;;;;;;;;;5078701;28;20368;-77
2023/07/16 03:22:47;;;;;;;0.00;0.00;;;;;;;;;;5101173;28;20388;-77
2023/07/16 03:25:13;;;;;;;0.00;0.00;;;;;;;;;;5077020;28;20209;-76
2023/07/16 03:27:39;;;;;;;0.00;0.00;;;;;;;;;;5102174;28;20192;-76
2023/07/16 03:30:08;;;;;;;0.10;0.10;;;;;;;;;;5086984;28;20441;-76
2023/07/16 03:32:37;;;;;;;0.00;0.00;;;;;;;;;;5055399;28;20245;-77
2023/07/16 03:35:04;;;;;;;0.00;0.00;;;;;;;;;;5067072;28;20206;-77
2023/07/16 03:37:30;;;;;;;0.10;0.10;;;;;;;;;;5091938;28;20253;-77
2023/07/16 03:40:12;;;;;;;0.00;0.00;;;;;;;;;;5086517;28;20254;-76
2023/07/16 03:42:39;;;;;;;0.03;0.03;;;;;;;;;;5074973;28;20291;-77
2023/07/16 03:45:06;;;;;;;0.45;0.45;;;;;;;;;;5086649;28;20232;-76
2023/07/16 03:47:33;;;;;;;0.10;0.10;;;;;;;;;;5091970;28;20291;-76
2023/07/16 03:50:02;;;;;;;0.08;0.08;;;;;;;;;;5086649;28;20391;-76
2023/07/16 03:52:29;;;;;;;0.00;0.00;;;;;;;;;;5091809;28;20245;-76
2023/07/16 03:54:56;;;;;;;0.10;0.10;;;;;;;;;;5086847;28;20448;-76
2023/07/16 03:57:22;;;;;;;0.00;0.00;;;;;;;;;;5091613;28;20263;-76
2023/07/16 03:59:48;;;;;;;0.08;0.08;;;;;;;;;;5086153;28;20206;-75
2023/07/16 04:02:15;;;;;;;0.00;0.00;;;;;;;;;;5091346;28;20272;-75
2023/07/16 04:04:42;;;;;;;0.08;0.08;;;;;;;;;;5086042;28;20246;-77
2023/07/16 04:07:09;;;;;;;0.00;0.00;;;;;;;;;;5091386;28;20242;-77
2023/07/16 04:09:38;;;;;;;0.00;0.00;;;;;;;;;;5086108;28;20207;-76
2023/07/16 04:12:06;;;;;;;0.00;0.00;;;;;;;;;;5090224;28;20236;-77
2023/07/16 04:14:33;;;;;;;0.00;0.00;;;;;;;;;;5086387;28;20205;-76
2023/07/16 04:16:59;;;;;;;0.00;0.00;;;;;;;;;;5090051;28;20583;-76
2023/07/16 04:19:26;;;;;;;0.00;0.00;;;;;;;;;;5084848;28;20222;-77
2023/07/16 04:21:54;;;;;;;0.10;0.10;;;;;;;;;;5088953;28;20239;-76
2023/07/16 04:24:24;;;;;;;0.10;0.10;;;;;;;;;;5084879;28;20211;-77
2023/07/16 04:26:51;;;;;;;0.00;0.00;;;;;;;;;;5089031;28;20248;-76
2023/07/16 04:29:20;;;;;;;0.00;0.00;;;;;;;;;;5088051;28;20281;-77
2023/07/16 04:31:49;;;;;;;0.00;0.00;;;;;;;;;;5088123;28;20241;-77
2023/07/16 04:34:16;;;;;;;0.10;0.10;;;;;;;;;;5088077;28;20243;-77
2023/07/16 04:36:43;;;;;;;0.00;0.00;;;;;;;;;;5087591;28;20445;-77
2023/07/16 04:39:11;;;;;;;0.10;0.10;;;;;;;;;;5088397;28;20237;-76
2023/07/16 04:41:37;;;;;;;4.03;1.20;;;;;;;;;;5086881;28;20240;-76
2023/07/16 04:44:04;;;;;;;0.13;0.13;;;;;;;;;;5089186;28;20205;-76
2023/07/16 04:46:30;;;;;;;0.10;0.10;;;;;;;;;;5085655;28;20241;-76
2023/07/16 04:48:57;;;;;;;0.00;0.00;;;;;;;;;;5090172;28;20219;-77
2023/07/16 04:51:26;;;;;;;0.40;0.40;;;;;;;;;;5085002;28;20244;-76
2023/07/16 04:53:52;;;;;;;0.00;0.00;;;;;;;;;;5090799;28;20241;-76
2023/07/16 04:56:21;;;;;;;0.10;0.10;;;;;;;;;;5084520;28;20253;-76
2023/07/16 04:58:49;;;;;;;0.00;0.00;;;;;;;;;;5091478;28;20231;-76
2023/07/16 05:01:15;;;;;;;0.00;0.00;;;;;;;;;;5083628;28;20240;-76
2023/07/16 05:03:43;;;;;;;0.00;0.00;;;;;;;;;;5092069;28;20242;-76
2023/07/16 05:06:10;;;;;;;0.10;0.10;;;;;;;;;;5082929;28;20240;-77
2023/07/16 05:08:36;;;;;;;0.00;0.00;;;;;;;;;;5092349;28;20206;-76
2023/07/16 05:11:03;;;;;;;0.00;0.00;;;;;;;;;;5081971;28;20257;-76
2023/07/16 05:13:31;;;;;;;0.00;0.00;;;;;;;;;;5093233;28;20206;-76
2023/07/16 05:15:57;;;;;;;0.00;0.00;;;;;;;;;;5081028;28;20245;-77
2023/07/16 05:18:23;;;;;;;0.00;0.00;;;;;;;;;;5093904;28;20215;-77
2023/07/16 05:20:50;;;;;;;0.00;0.00;;;;;;;;;;5080097;28;20469;-76
2023/07/16 05:23:17;;;;;;;0.00;0.00;;;;;;;;;;5093817;28;20230;-77
2023/07/16 05:25:46;;;;;;;0.10;0.10;;;;;;;;;;5077958;28;20414;-76
2023/07/16 05:28:14;;;;;;;0.10;0.10;;;;;;;;;;5094994;28;20269;-77
2023/07/16 05:30:44;;;;;;;0.10;0.10;;;;;;;;;;5078575;28;20306;-77
2023/07/16 05:33:11;;;;;;;0.00;0.00;;;;;;;;;;5095695;28;20233;-76
2023/07/16 05:35:37;;;;;;;0.00;0.00;;;;;;;;;;5077968;28;20240;-75
2023/07/16 05:38:03;;;;;;;0.10;0.10;;;;;;;;;;5096068;28;20407;-76
2023/07/16 05:40:30;;;;;;;0.10;0.10;;;;;;;;;;5076710;28;20466;-76
2023/07/16 05:42:57;;;;;;;0.00;0.00;;;;;;;;;;5097669;28;20218;-75
2023/07/16 05:45:24;;;;;;;0.00;0.00;;;;;;;;;;5075758;28;20212;-76
2023/07/16 05:47:53;;;;;;;0.00;0.00;;;;;;;;;;5097851;28;20206;-76
2023/07/16 05:50:19;;;;;;;0.00;0.00;;;;;;;;;;5075382;28;20271;-76
2023/07/16 05:52:48;;;;;;;0.00;0.00;;;;;;;;;;5098372;28;20278;-76
2023/07/16 05:55:14;;;;;;;0.00;0.00;;;;;;;;;;5074824;28;20525;-77
2023/07/16 05:57:42;;;;;;;0.10;0.10;;;;;;;;;;5099040;28;20273;-77
2023/07/16 06:00:10;;;;;;;0.10;0.10;;;;;;;;;;5083805;28;20225;-77
2023/07/16 06:02:38;;;;;;;0.00;0.00;;;;;;;;;;5072419;28;20610;-77
2023/07/16 06:05:07;;;;;;;0.10;0.10;;;;;;;;;;5083748;28;20215;-76
2023/07/16 06:07:33;;;;;;;0.00;0.00;;;;;;;;;;5072503;28;20537;-77
2023/07/16 06:10:00;;;;;;;0.00;0.00;;;;;;;;;;5083794;28;20205;-77
2023/07/16 06:12:26;;;;;;;0.00;0.00;;;;;;;;;;5089147;28;20450;-76
2023/07/16 06:14:57;;;;;;;0.00;0.00;;;;;;;;;;5084195;28;20197;-76
2023/07/16 06:17:23;;;;;;;0.00;0.00;;;;;;;;;;5088952;28;20245;-75
2023/07/16 06:19:51;;;;;;;0.00;0.00;;;;;;;;;;5084154;28;20197;-76
2023/07/16 06:22:19;;;;;;;0.00;0.00;;;;;;;;;;5089061;28;20244;-76
2023/07/16 06:24:45;;;;;;;0.00;0.00;;;;;;;;;;5083743;28;20205;-76
2023/07/16 06:27:12;;;;;;;0.00;0.00;;;;;;;;;;5089063;28;20241;-77
2023/07/16 06:29:38;;;;;;;0.00;0.00;;;;;;;;;;5083645;28;20205;-75
2023/07/16 06:32:05;;;;;;;0.30;0.30;;;;;;;;;;5088520;28;20314;-76
2023/07/16 06:34:31;;;;;;;0.10;0.10;;;;;;;;;;5084019;28;20244;-77
2023/07/16 06:36:58;;;;;;;0.00;0.00;;;;;;;;;;5087709;28;20311;-76
2023/07/16 06:39:25;;;;;;;0.20;0.20;;;;;;;;;;5084846;28;20292;-77
2023/07/16 06:41:52;;;;;;;0.00;0.00;;;;;;;;;;5086417;28;20303;-77
2023/07/16 06:44:18;;;;;;;0.03;0.03;;;;;;;;;;5085830;28;20239;-77
2023/07/16 06:46:45;;;;;;;0.00;0.00;;;;;;;;;;5085810;28;20501;-77
2023/07/16 06:49:11;;;;;;;1.40;1.40;;;;;;;;;;5086208;28;20250;-78
2023/07/16 06:51:37;;;;;;;0.20;0.20;;;;;;;;;;5084804;28;20573;-78
2023/07/16 06:54:04;;;;;;;0.03;0.03;;;;;;;;;;5087551;28;20274;-77
2023/07/16 06:56:31;;;;;;;0.10;0.10;;;;;;;;;;5083647;28;20262;-77
2023/07/16 06:58:58;;;;;;;0.00;0.00;;;;;;;;;;5088128;28;20410;-77
2023/07/16 07:01:24;;;;;;;0.08;0.08;;;;;;;;;;5082974;28;20284;-77
2023/07/16 07:03:50;;;;;;;0.05;0.05;;;;;;;;;;5089085;28;20229;-74
2023/07/16 07:06:17;;;;;;;0.10;0.10;;;;;;;;;;5082198;28;20252;-75
2023/07/16 07:08:45;;;;;;;0.10;0.10;;;;;;;;;;5090193;28;20242;-78
2023/07/16 07:11:13;;;;;;;0.10;0.10;;;;;;;;;;5081156;28;20253;-78
2023/07/16 07:13:42;;;;;;;0.00;0.00;;;;;;;;;;5090637;28;20447;-75
2023/07/16 07:16:08;;;;;;;0.10;0.10;;;;;;;;;;5079867;28;20251;-76
2023/07/16 07:18:34;;;;;;;0.10;0.10;;;;;;;;;;5091628;28;20276;-72
2023/07/16 07:21:01;;;;;;;0.10;0.10;;;;;;;;;;5079870;28;20250;-74
2023/07/16 07:23:27;;;;;;;0.00;0.00;;;;;;;;;;5091709;28;20226;-77
2023/07/16 07:25:54;;;;;;;0.00;0.00;;;;;;;;;;5078968;28;20468;-74
2023/07/16 07:28:21;;;;;;;0.00;0.00;;;;;;;;;;5092276;28;20248;-73
2023/07/16 07:30:48;;;;;;;0.08;0.08;;;;;;;;;;5077824;28;20272;-75
2023/07/16 07:33:15;;;;;;;0.10;0.10;;;;;;;;;;5093385;28;20238;-72
2023/07/16 07:35:41;;;;;;;0.10;0.10;;;;;;;;;;5077072;28;20262;-75
2023/07/16 07:38:07;;;;;;;0.00;0.00;;;;;;;;;;5094131;28;20277;-75
2023/07/16 07:40:34;;;;;;;0.20;0.20;;;;;;;;;;5076118;28;20258;-75
2023/07/16 07:43:04;;;;;;;0.00;0.00;;;;;;;;;;5095015;28;20264;-77
2023/07/16 07:45:30;;;;;;;0.00;0.00;;;;;;;;;;5077304;28;20305;-74
2023/07/16 07:47:58;;;;;;;0.00;0.00;;;;;;;;;;5098669;28;20214;-74
2023/07/16 07:50:25;;;;;;;0.00;0.00;;;;;;;;;;5078772;28;20230;-74
2023/07/16 07:52:52;;;;;;;0.03;0.03;;;;;;;;;;5099981;28;20203;-70
2023/07/16 07:55:18;;;;;;;0.03;0.03;;;;;;;;;;5077703;28;20214;-75
2023/07/16 07:57:44;;;;;;;0.00;0.00;;;;;;;;;;5100519;28;20238;-75
2023/07/16 08:00:11;;;;;;;0.00;0.00;;;;;;;;;;5076384;28;20293;-72
2023/07/16 08:02:38;;;;;;;0.00;0.00;;;;;;;;;;5101347;28;20230;-75
2023/07/16 08:05:06;;;;;;;0.00;0.00;;;;;;;;;;5086222;28;20235;-74
2023/07/16 08:07:33;;;;;;;0.00;0.00;;;;;;;;;;5074841;28;20474;-73
2023/07/16 08:09:59;;;;;;;0.08;0.08;;;;;;;;;;5086517;28;20277;-73
2023/07/16 08:12:26;;;;;;;0.10;0.10;;;;;;;;;;5091546;28;20239;-74
2023/07/16 08:14:52;;;;;;;0.43;0.43;;;;;;;;;;5086328;28;20275;-74
2023/07/16 08:17:18;;;;;;;0.00;0.00;;;;;;;;;;5091503;28;20254;-75
2023/07/16 08:19:45;;;;;;;0.05;0.05;;;;;;;;;;5086286;28;20431;-75
2023/07/16 08:22:12;;;;;;;0.00;0.00;;;;;;;;;;5091464;28;20238;-76
2023/07/16 08:24:39;;;;;;;0.10;0.10;;;;;;;;;;5085743;28;20260;-74
2023/07/16 08:27:05;;;;;;;0.00;0.00;;;;;;;;;;5090982;28;20317;-74
2023/07/16 08:29:32;;;;;;;0.60;0.57;;;;;;;;;;5086102;28;20511;-76
2023/07/16 08:31:58;;;;;;;0.00;0.00;;;;;;;;;;5089935;28;20239;-74
2023/07/16 08:34:25;;;;;;;0.10;0.10;;;;;;;;;;5087046;28;20253;-73
2023/07/16 08:36:51;;;;;;;0.00;0.00;;;;;;;;;;5089056;28;20592;-75
2023/07/16 08:39:20;;;;;;;0.10;0.10;;;;;;;;;;5087831;28;20415;-75
2023/07/16 08:41:46;;;;;;;0.00;0.00;;;;;;;;;;5088279;28;20239;-74
2023/07/16 08:44:13;;;;;;;0.08;0.08;;;;;;;;;;5088222;28;20258;-77
2023/07/16 08:46:40;;;;;;;0.00;0.00;;;;;;;;;;5087300;28;20254;-77
2023/07/16 08:49:08;;;;;;;0.00;0.00;;;;;;;;;;5089104;28;20275;-77
2023/07/16 08:51:35;;;;;;;0.00;0.00;;;;;;;;;;5086685;28;20284;-78
2023/07/16 08:54:02;;;;;;;0.05;0.05;;;;;;;;;;5089651;28;20249;-82
2023/07/16 08:56:31;;;;;;;0.00;0.00;;;;;;;;;;5085595;28;20250;-81
2023/07/16 08:58:59;;;;;;;0.10;0.10;;;;;;;;;;5090015;28;20211;-80
2023/07/16 09:01:25;;;;;;;0.00;0.00;;;;;;;;;;5085157;28;20305;-77
2023/07/16 09:03:52;;;;;;;0.00;0.00;;;;;;;;;;5090224;28;20251;-79
2023/07/16 09:06:18;;;;;;;0.00;0.00;;;;;;;;;;5084113;28;20465;-78
2023/07/16 09:08:44;;;;;;;0.00;0.00;;;;;;;;;;5091640;28;20210;-77
2023/07/16 09:11:12;;;;;;;0.00;0.00;;;;;;;;;;5082937;28;20261;-77
2023/07/16 09:13:44;;;;;;;0.10;0.10;;;;;;;;;;5092098;28;20272;-78
2023/07/16 09:16:10;;;;;;;0.00;0.00;;;;;;;;;;5082710;28;20257;-77
2023/07/16 09:18:37;;;;;;;0.00;0.00;;;;;;;;;;5092154;28;20252;-78
2023/07/16 09:21:05;;;;;;;0.15;0.15;;;;;;;;;;5081732;28;20254;-77
2023/07/16 09:23:33;;;;;;;0.00;0.00;;;;;;;;;;5092810;28;20227;-78
2023/07/16 09:25:59;;;;;;;0.05;0.05;;;;;;;;;;5080984;28;20296;-78
2023/07/16 09:28:26;;;;;;;0.13;0.13;;;;;;;;;;5093397;28;20227;-77
2023/07/16 09:30:54;;;;;;;0.30;0.30;;;;;;;;;;5080166;28;20307;-76
2023/07/16 09:33:22;;;;;;;0.00;0.00;;;;;;;;;;5094160;28;20203;-79
2023/07/16 09:35:49;;;;;;;0.00;0.00;;;;;;;;;;5079665;28;20431;-77
2023/07/16 09:38:15;;;;;;;0.00;0.00;;;;;;;;;;5094651;28;20262;-76
2023/07/16 09:40:42;;;;;;;0.00;0.00;;;;;;;;;;5078443;28;20459;-77
2023/07/16 09:43:09;;;;;;;0.10;0.10;;;;;;;;;;5095410;28;20227;-79
2023/07/16 09:45:35;;;;;;;0.00;0.00;;;;;;;;;;5077367;28;20503;-78
2023/07/16 09:48:03;;;;;;;0.08;0.08;;;;;;;;;;5096309;28;20264;-79
2023/07/16 09:50:30;;;;;;;0.00;0.00;;;;;;;;;;5077090;28;20262;-77
2023/07/16 09:52:57;;;;;;;0.08;0.08;;;;;;;;;;5097047;28;20422;-78
2023/07/16 09:55:24;;;;;;;0.08;0.08;;;;;;;;;;5075851;28;20211;-77
2023/07/16 09:57:52;;;;;;;0.00;0.00;;;;;;;;;;5097532;28;20203;-79
2023/07/16 10:00:20;;;;;;;0.00;0.00;;;;;;;;;;5074906;28;20278;-79
2023/07/16 10:02:47;;;;;;;0.00;0.00;;;;;;;;;;5097991;28;20245;-77
2023/07/16 10:05:15;;;;;;;0.08;0.08;;;;;;;;;;5074270;28;20271;-78
2023/07/16 10:07:41;;;;;;;0.10;0.10;;;;;;;;;;5098672;28;20207;-80
2023/07/16 10:10:09;;;;;;;0.00;0.00;;;;;;;;;;5079212;28;20195;-77
2023/07/16 10:12:35;;;;;;;0.00;0.00;;;;;;;;;;5099481;28;20257;-78
2023/07/16 10:15:03;;;;;;;0.00;0.00;;;;;;;;;;5084113;28;20250;-77
2023/07/16 10:17:30;;;;;;;0.00;0.00;;;;;;;;;;5089271;28;20243;-77
2023/07/16 10:19:58;;;;;;;0.00;0.00;;;;;;;;;;5083984;28;20302;-75
2023/07/16 10:22:40;;;;;;;0.00;0.00;;;;;;;;;;5089308;28;20238;-76
2023/07/16 10:25:09;;;;;;;0.10;0.10;;;;;;;;;;5083476;28;20298;-77
2023/07/16 10:27:36;;;;;;;0.00;0.00;;;;;;;;;;5072075;28;20317;-78
2023/07/16 10:30:04;;;;;;;0.10;0.10;;;;;;;;;;5083432;28;20241;-78
2023/07/16 10:32:31;;;;;;;0.00;0.00;;;;;;;;;;5088980;28;20254;-76
2023/07/16 10:34:58;;;;;;;0.00;0.00;;;;;;;;;;5083934;28;20203;-81
2023/07/16 10:37:24;;;;;;;0.10;0.10;;;;;;;;;;5088937;28;20238;-78
2023/07/16 10:39:53;;;;;;;0.00;0.00;;;;;;;;;;5083429;28;20238;-78
2023/07/16 10:42:20;;;;;;;0.00;0.00;;;;;;;;;;5088927;28;20517;-80
2023/07/16 10:44:51;;;;;;;0.00;0.00;;;;;;;;;;5083272;28;20227;-79
2023/07/16 10:47:23;;;;;;;0.00;0.00;;;;;;;;;;5088947;28;20249;-78
2023/07/16 10:49:51;;;;;;;0.00;0.00;;;;;;;;;;5083439;28;20270;-78
2023/07/16 10:52:18;;;;;;;0.00;0.00;;;;;;;;;;5088872;28;20288;-78
2023/07/16 10:54:45;;;;;;;0.00;0.00;;;;;;;;;;5083291;28;20226;-78
2023/07/16 10:57:13;;;;;;;0.10;0.10;;;;;;;;;;5088751;28;20246;-80
2023/07/16 10:59:40;;;;;;;0.00;0.00;;;;;;;;;;5083634;28;20226;-77
2023/07/16 11:02:09;;;;;;;0.03;0.03;;;;;;;;;;5088409;28;20246;-78
2023/07/16 11:04:36;;;;;;;0.00;0.00;;;;;;;;;;5083223;28;20337;-78
2023/07/16 11:07:04;;;;;;;0.00;0.00;;;;;;;;;;5087842;28;20242;-77
2023/07/16 11:09:32;;;;;;;0.00;0.00;;;;;;;;;;5083574;28;20249;-79
2023/07/16 11:12:05;;;;;;;0.00;0.00;;;;;;;;;;5087374;28;20302;-78
2023/07/16 11:14:34;;;;;;;0.00;0.00;;;;;;;;;;5083741;28;20389;-78
2023/07/16 11:17:04;;;;;;;0.00;0.00;;;;;;;;;;5087626;28;20301;-78
2023/07/16 11:19:31;;;;;;;0.00;0.00;;;;;;;;;;5083602;28;20195;-78
2023/07/16 11:22:00;;;;;;;0.00;0.00;;;;;;;;;;5088974;28;20562;-79
2023/07/16 11:24:27;;;;;;;0.00;0.00;;;;;;;;;;5087985;28;20254;-78
2023/07/16 11:26:54;;;;;;;0.00;0.00;;;;;;;;;;5090516;28;20234;-78
2023/07/16 11:29:21;;;;;;;0.00;0.00;;;;;;;;;;5088684;28;20286;-79
2023/07/16 11:31:51;;;;;;;0.45;0.45;;;;;;;;;;5089565;28;20238;-79
2023/07/16 11:34:17;;;;;;;0.00;0.00;;;;;;;;;;5089309;28;20481;-80
2023/07/16 11:36:44;;;;;;;0.00;0.00;;;;;;;;;;5088943;28;20302;-79
2023/07/16 11:39:11;;;;;;;0.00;0.00;;;;;;;;;;5089658;28;20210;-77
2023/07/16 11:41:37;;;;;;;0.00;0.00;;;;;;;;;;5088173;28;20301;-77
2023/07/16 11:44:07;;;;;;;0.00;0.00;;;;;;;;;;5090587;28;20227;-76
2023/07/16 11:46:33;;;;;;;0.00;0.00;;;;;;;;;;5087461;28;20238;-76
2023/07/16 11:49:02;;;;;;;0.10;0.10;;;;;;;;;;5091157;28;20274;-76
2023/07/16 11:51:28;;;;;;;0.00;0.00;;;;;;;;;;5086586;28;20594;-75
2023/07/16 11:53:56;;;;;;;0.00;0.00;;;;;;;;;;5091733;28;20235;-77
2023/07/16 11:56:23;;;;;;;0.00;0.00;;;;;;;;;;5085900;28;20310;-77
2023/07/16 11:58:49;;;;;;;0.00;0.00;;;;;;;;;;5092467;28;20237;-77
2023/07/16 12:01:16;;;;;;;0.00;0.00;;;;;;;;;;5084506;28;20472;-77
2023/07/16 12:03:42;;;;;;;0.00;0.00;;;;;;;;;;5093535;28;20235;-78
2023/07/16 12:06:10;;;;;;;0.00;0.00;;;;;;;;;;5084024;28;20497;-78
2023/07/16 12:08:37;;;;;;;0.00;0.00;;;;;;;;;;5093815;28;20274;-78
2023/07/16 12:11:03;;;;;;;0.00;0.00;;;;;;;;;;5083092;28;20309;-77
2023/07/16 12:13:29;;;;;;;0.00;0.00;;;;;;;;;;5094586;28;20238;-77
2023/07/16 12:15:56;;;;;;;0.05;0.05;;;;;;;;;;5081918;28;20238;-77
2023/07/16 12:18:22;;;;;;;0.10;0.10;;;;;;;;;;5095486;28;20275;-77
2023/07/16 12:20:49;;;;;;;0.00;0.00;;;;;;;;;;5081072;28;20238;-75
2023/07/16 12:23:16;;;;;;;0.00;0.00;;;;;;;;;;5096041;28;20271;-76
2023/07/16 12:25:44;;;;;;;0.00;0.00;;;;;;;;;;5080331;28;20242;-77
2023/07/16 12:28:11;;;;;;;0.00;0.00;;;;;;;;;;5096846;28;20203;-76
2023/07/16 12:30:38;;;;;;;0.00;0.00;;;;;;;;;;5079762;28;20241;-76
2023/07/16 12:33:04;;;;;;;0.00;0.00;;;;;;;;;;5097198;28;20279;-76
2023/07/16 12:35:31;;;;;;;0.00;0.00;;;;;;;;;;5078635;28;20473;-76
2023/07/16 12:37:58;;;;;;;0.00;0.00;;;;;;;;;;5098490;28;20438;-76
2023/07/16 12:40:25;;;;;;;0.00;0.00;;;;;;;;;;5077673;28;20692;-76
2023/07/16 12:42:52;;;;;;;0.00;0.00;;;;;;;;;;5098874;28;20214;-76
2023/07/16 12:45:18;;;;;;;0.00;0.00;;;;;;;;;;5076745;28;20254;-76
2023/07/16 12:47:44;;;;;;;0.00;0.00;;;;;;;;;;5099933;28;20549;-77
2023/07/16 12:50:11;;;;;;;0.00;0.00;;;;;;;;;;5075853;28;20203;-76
2023/07/16 12:52:37;;;;;;;0.00;0.00;;;;;;;;;;5100869;28;20230;-77
2023/07/16 12:55:04;;;;;;;0.00;0.00;;;;;;;;;;5085567;28;20495;-77
2023/07/16 12:57:32;;;;;;;0.00;0.00;;;;;;;;;;5093469;28;20306;-77
2023/07/16 13:00:01;;;;;;;0.00;0.00;;;;;;;;;;5085387;28;20210;-76
2023/07/16 13:02:28;;;;;;;0.00;0.00;;;;;;;;;;5090608;28;20234;-76
2023/07/16 13:04:54;;;;;;;0.00;0.00;;;;;;;;;;5085300;28;20257;-74
2023/07/16 13:07:20;;;;;;;0.00;0.00;;;;;;;;;;5090536;28;20246;-79
2023/07/16 13:09:47;;;;;;;0.15;0.15;;;;;;;;;;5085288;28;20207;-76
2023/07/16 13:12:13;;;;;;;0.52;0.52;;;;;;;;;;5090334;28;20317;-78
2023/07/16 13:14:41;;;;;;;0.00;0.00;;;;;;;;;;5085206;28;20216;-79
2023/07/16 13:17:07;;;;;;;0.00;0.00;;;;;;;;;;5090157;28;20239;-78
2023/07/16 13:19:34;;;;;;;0.00;0.00;;;;;;;;;;5085095;28;20300;-77
2023/07/16 13:22:00;;;;;;;0.00;0.00;;;;;;;;;;5089280;28;20310;-81
2023/07/16 13:24:26;;;;;;;0.43;0.43;;;;;;;;;;5085427;28;20223;-80
2023/07/16 13:26:53;;;;;;;0.00;0.00;;;;;;;;;;5088314;28;20245;-79
2023/07/16 13:29:19;;;;;;;0.00;0.00;;;;;;;;;;5086579;28;20207;-79
2023/07/16 13:31:47;;;;;;;0.00;0.00;;;;;;;;;;5087151;28;20262;-78
2023/07/16 13:34:13;;;;;;;0.30;0.30;;;;;;;;;;5087486;28;20203;-79
2023/07/16 13:36:40;;;;;;;0.00;0.00;;;;;;;;;;5086132;28;20310;-75
2023/07/16 13:39:06;;;;;;;0.00;0.00;;;;;;;;;;5088064;28;20269;-74
2023/07/16 13:41:32;;;;;;;0.00;0.00;;;;;;;;;;5085198;28;20425;-75
2023/07/16 13:43:59;;;;;;;0.63;0.63;;;;;;;;;;5088143;28;20204;-77
2023/07/16 13:46:25;;;;;;;0.10;0.10;;;;;;;;;;5084111;28;20235;-75
2023/07/16 13:49:28;;;;;;;0.00;0.00;;;;;;;;;;5090371;28;20400;-76
2023/07/16 13:51:56;;;;;;;0.00;0.00;;;;;;;;;;5088591;28;20291;-79
2023/07/16 13:54:23;;;;;;;0.00;0.00;;;;;;;;;;5086075;28;20271;-78
2023/07/16 13:56:49;;;;;;;0.00;0.00;;;;;;;;;;5086985;28;20306;-79
2023/07/16 13:59:16;;;;;;;0.00;0.00;;;;;;;;;;5086685;28;20270;-78
2023/07/16 14:01:42;;;;;;;0.00;0.00;;;;;;;;;;5085939;28;20309;-77
2023/07/16 14:04:08;;;;;;;0.00;0.00;;;;;;;;;;5087575;28;20234;-79
2023/07/16 14:06:35;;;;;;;0.00;0.00;;;;;;;;;;5085179;28;20245;-74
2023/07/16 14:09:04;;;;;;;0.00;0.00;;;;;;;;;;5088243;28;20394;-75
2023/07/16 14:11:31;;;;;;;0.00;0.00;;;;;;;;;;5084529;28;20417;-75
2023/07/16 14:13:57;;;;;;;0.00;0.00;;;;;;;;;;5088730;28;20270;-74
2023/07/16 14:16:23;;;;;;;0.00;0.00;;;;;;;;;;5083459;28;20238;-75
2023/07/16 14:18:51;;;;;;;0.00;0.00;;;;;;;;;;5089629;28;20261;-75
2023/07/16 14:21:17;;;;;;;0.15;0.15;;;;;;;;;;5082481;28;20238;-75
2023/07/16 14:23:44;;;;;;;0.00;0.00;;;;;;;;;;5090425;28;20270;-75
2023/07/16 14:26:12;;;;;;;0.00;0.00;;;;;;;;;;5081375;28;20287;-74
2023/07/16 14:28:38;;;;;;;0.00;0.00;;;;;;;;;;5091231;28;20278;-74
2023/07/16 14:31:04;;;;;;;0.00;0.00;;;;;;;;;;5080867;28;20306;-75
2023/07/16 14:33:31;;;;;;;0.00;0.00;;;;;;;;;;5092133;28;20300;-75
2023/07/16 14:35:58;;;;;;;0.00;0.00;;;;;;;;;;5079995;28;20242;-74
2023/07/16 14:38:24;;;;;;;0.00;0.00;;;;;;;;;;5092824;28;20302;-75
2023/07/16 14:40:51;;;;;;;0.50;0.50;;;;;;;;;;5078960;28;20302;-74
2023/07/16 14:43:19;;;;;;;0.00;0.00;;;;;;;;;;5093619;28;20231;-75